Iron Gates, Missouri
Current Conditions -  °F | °C
As of 5:53 AM on Thursday 18 Dec 2014 (Local Time) from KJLN Reporting Station
Haze Haze  
Wind Chill: 31°   Ceiling: 400
Heat Index: 35°   Visibility: 3mi
Dew Point: 34°   Wind: 5mph
Humidity: 96%   Direction: 110°ESE
Pressure: 30.17"   Gusts: NA
Location:  37.1074°N, 94.5218°W
Report Text: KJLN 181153Z 11004KT 3SM BR OVC004 02/01 A3017 RMK AO2 RAE29UPB29E40 SLP221 P0001 60005 70038 T00170011 10017 20006 55007
Loading
Personal Weather Stations






























Interactive Weather Map New forecast layout! Learn more

10-Day Weather Forecast

Advertisements
Track Severe Weather on mobile